АЭРОДРОМУУД

ICAO:
ZMUB
Нэр:
УЛААНБААТАР / БУЯНТ-УХАА
Ахц:
475033N 1064603E
091110 ZMUBYNYX
(A0240/21 NOTAMR A0232/21
Q) ZMUB/QFAXX/IV/NBO/A /000/999/4750N10646E005
A) ZMUB B) 2105091110 C) 2105311600
E) AD CLSD FOR INTL SKED FLT DUE TO COVID-19 INFECTION PREVENTION.)
- 18 hours ago -

010157 ZMUBYNYX
(C0041/21 NOTAMR C0036/21
Q) ZMUB/QKKKK/K /K /K /000/999/4752N10350E999
A) ZMUB B) 2105010157 C) 2106010700
E) CHECKLIST YEAR=2021 0037 0040 LATEST PUBLICATIONS: AIP AMDT: 02/21 PUBLICATION DATE 08 APR 2021 AIRAC AIP AMDT: 02/21 WEF 20 MAY 2021 AIC (SERIES C): 01/21 PUBLICATION DATE 18 JAN 2021 AIP SUP: 08/20 PUBLICATION DATE 19 NOV 2020 AIRAC AIP SUP: 01/18 WEF 21 JUN 2018 AIP DATA SET: AIPZM-AMDT01-21 PUB 14 JAN 2021 OBST DATA SET: O-AREA1ZM200618 WEF 18 JUN 2020 O-AREA2ZMCK200618 WEF 18 JUN 2020 O-AREA2ZMUB200730 WEF 10 SEP 2020 O-AREA3ZMCK200618 WEF 18 JUN 2020 O-AREA3ZMUB200618 WEF 18 JUN 2020 TERRAIN DATA SET: T-AREA1ZM200618 WEF 18 JUN 2020 T-AREA2ZMCK200618 WEF 18 JUN 2020 T-AREA2ZMUB200618 WEF 18 JUN 2020 T-AREA3ZMCK200618 WEF 18 JUN 2020 T-AREA3ZMUB200618 WEF 18 JUN 2020 AD MAPPING DATA SET: AMDBZMCK200618 WEF 18 JUN 2020 AMDBZMUB200618 WEF 18 JUN 2020 AMDBZMDZ200618 WEF 18 JUN 2020 IFP DATA SET:IFPZM21 WEF 04 JAN 2021 AIP SUP CHECKLIST: AIP SUP: 01/20, 05/20, 06/20, 07/20, 08/20 AIRAC AIP SUP: 01/18 AIC CHECKLIST: AIC (SERIES C): 02/08, 02/20, 01/21)
- 1 week ago -

010152 ZMUBYNYX
(A0220/21 NOTAMR A0165/21
Q) ZMUB/QKKKK/K /K /K /000/999/4752N10350E999
A) ZMUB B) 2105010152 C) 2106010700
E) CHECKLIST YEAR=2021 0164 0185 0189 0217 0218 0219 LATEST PUBLICATIONS: AIP AMDT: 02/21 PUBLICATION DATE 08 APR 2021 AIRAC AIP AMDT: 02/21 WEF 20 MAY 2021 AIC (SERIES A): 03/21 PUBLICATION DATE 16 APR 2021 AIP SUP: 08/20 PUBLICATION DATE 19 NOV 2020 AIRAC AIP SUP: 01/18 WEF 21 JUN 2018 AIP DATA SET: AIPZM-AMDT01-21 PUB 14 JAN 2021 OBST DATA SET: O-AREA1ZM200618 WEF 18 JUN 2020 O-AREA2ZMCK200618 WEF 18 JUN 2020 O-AREA2ZMUB200730 WEF 10 SEP 2020 O-AREA3ZMCK200618 WEF 18 JUN 2020 O-AREA3ZMUB200618 WEF 18 JUN 2020 TERRAIN DATA SET: T-AREA1ZM200618 WEF 18 JUN 2020 T-AREA2ZMCK200618 WEF 18 JUN 2020 T-AREA2ZMUB200618 WEF 18 JUN 2020 T-AREA3ZMCK200618 WEF 18 JUN 2020 T-AREA3ZMUB200618 WEF 18 JUN 2020 AD MAPPING DATA SET: AMDBZMCK200618 WEF 18 JUN 2020 AMDBZMUB200618 WEF 18 JUN 2020 AMDBZMDZ200618 WEF 18 JUN 2020 IFP DATA SET:IFPZM21 WEF 04 JAN 2021 AIP SUP CHECKLIST: AIP SUP: 01/20, 05/20, 06/20, 07/20, 08/20 AIRAC AIP SUP: 01/18 AIC CHECKLIST: AIC (SERIES A): 04/17, 03/20, 06/20, 01/21, 02/21, 03/21)
- 1 week ago -

301100 ZMUBYNYX
(A0217/21 NOTAMN
Q) ZMUB/QFAHX/IV/NBO/A /000/999/4752N10643E002
A) ZMUB B) 2104302100 C) 2105311300
D) DAILY 2100-2300 1100-1300
E) AD BIRD CONCENTRATION WI 2.6KM RADIUS CENTRED ON 475227N1064329E
F) GND G) 300M AGL)
- 1 week ago -

090217 ZMUBYNYX
(A0185/21 NOTAMN
Q) ZMUB/QOBTT/IV/BO /AE/000/999/4750N10646E005
A) ZMUB B) 2105200000 C) 2106022359
E) TRIGGER NOTAM-PERM AIRAC AIP AMDT 02/21 WEF 20 MAY 2021 -UPDATES OF ZMUB AREA 2 OBST )
- 1 month ago -

METAR
METAR ZMUB 100430Z 18002MPS 9999 FEW033 16/M05 Q1005 NOSIG RMK QFE647.7 23 MOP=
- 27 minutes ago -

TAF
TAF ZMUB 092240Z 1000/1106 VRB02MPS 9999 FEW030CB SCT033 TX17/1006Z TN01/1022Z BECMG 1007/1009 34008G13MPS FEW030CB BKN033 TEMPO 1010/1023 6000 RASN FEW027CB BKN030 BECMG 1014/1016 34006MPS BECMG 1101/1103 34009MPS FEW030CB SCT033=
- 6 hours ago -

TAF ZMUB 091630Z 0918/1024 VRB02MPS 9999 FEW030CB SCT033 TNM01/0922Z TX17/1006Z BECMG 1007/1009 34007MPS FEW030CB BKN033 TEMPO 1010/1022 6000 RASN FEW027CB BKN030 BECMG 1012/1014 34005MPS=
- 12 hours ago -

TAF ZMUB 091040Z 0912/1018 VRB02MPS 9999 FEW030CB SCT033 TNM01/0922Z TX17/1006Z BECMG 1003/1005 27005MPS FEW030CB BKN033 BECMG 1007/1009 34007MPS 6000 -RASN FEW027CB BKN030 BECMG 1012/1014 34005MPS=
- 18 hours ago -

TAF ZMUB 090440Z 0906/1012 33006MPS 9999 FEW030CB SCT033 TX14/0906Z TNM01/0922Z BECMG 0911/0913 VRB02MPS BECMG 1003/1005 26007MPS BECMG 1007/1009 34007MPS FEW030CB BKN033=
- 1 day ago -

TAF ZMUB 082230Z 0900/1006 VRB02MPS 9999 FEW030CB SCT033 TX14/0906Z TN01/0922Z BECMG 0902/0904 33007MPS FM091200 VRB02MPS BECMG 1002/1004 25007MPS=
- 1 day ago -

TAF ZMUB 081630Z 0818/0924 VRB02MPS 9999 FEW030CB SCT033 TNM02/0822Z TX14/0906Z BECMG 0902/0904 33007MPS FM091200 VRB02MPS=
- 2 days ago -